Time;durP1;ratioP1;P1;durP2;ratioP2;P2;SDS_P1;SDS_P2;PMS_P1;PMS_P2;Temp;Humidity;BMP_temperature;BMP_pressure;BME280_temperature;BME280_humidity;BME280_pressure;Samples;Min_cycle;Max_cycle;Signal;HPM_P1;HPM_P2
2021/12/11 00:01:10;;;;;;;102.18;35.78;;;;;;;-3.05;100.00;97791.28;4368946;32;20098;-73
2021/12/11 00:03:43;;;;;;;104.55;36.85;;;;;;;-3.16;100.00;97790.00;4368396;32;20115;-72
2021/12/11 00:06:20;;;;;;;111.72;35.65;;;;;;;-3.10;100.00;97798.94;4357201;32;20063;-72
2021/12/11 00:08:52;;;;;;;111.00;37.45;;;;;;;-3.38;100.00;97752.37;4368292;32;20048;-72
2021/12/11 00:11:27;;;;;;;119.40;37.30;;;;;;;-3.14;100.00;97816.97;4369638;32;20052;-72
2021/12/11 00:13:58;;;;;;;105.18;36.90;;;;;;;-3.13;100.00;97805.44;4355254;32;20051;-72
2021/12/11 00:16:30;;;;;;;97.75;33.13;;;;;;;-3.11;100.00;97813.13;4367460;32;20376;-73
2021/12/11 00:19:04;;;;;;;101.00;35.17;;;;;;;-3.37;100.00;97767.16;4369487;32;20189;-72
2021/12/11 00:21:31;;;;;;;108.70;37.53;;;;;;;-3.10;100.00;97814.75;4368380;32;20043;-72
2021/12/11 00:24:05;;;;;;;95.00;34.45;;;;;;;-3.03;100.00;97815.63;4359828;32;20081;-72
2021/12/11 00:26:42;;;;;;;101.00;36.75;;;;;;;-3.08;100.00;97807.47;4369240;32;20039;-72
2021/12/11 00:29:11;;;;;;;103.38;36.30;;;;;;;-3.14;100.00;97805.63;4368600;32;20079;-72
2021/12/11 00:31:48;;;;;;;107.25;36.90;;;;;;;-3.26;100.00;97788.72;4368457;32;20040;-72
2021/12/11 00:34:16;;;;;;;99.53;35.58;;;;;;;-3.25;100.00;97780.63;4368079;32;20083;-72
2021/12/11 00:36:56;;;;;;;100.87;34.55;;;;;;;-2.98;100.00;97829.03;4369421;32;20051;-72
2021/12/11 00:39:24;;;;;;;98.50;35.30;;;;;;;-2.93;100.00;97847.69;4368175;32;20423;-74
2021/12/11 00:41:55;;;;;;;108.55;39.90;;;;;;;-3.21;100.00;97802.09;4368156;32;20080;-74
2021/12/11 00:44:33;;;;;;;105.87;32.45;;;;;;;-3.18;100.00;97801.72;4369349;32;20089;-72
2021/12/11 00:47:29;;;;;;;106.60;34.13;;;;;;;-3.16;100.00;97802.34;4353586;33;20109;-72
2021/12/11 00:50:07;;;;;;;103.12;31.30;;;;;;;-3.00;100.00;97824.94;4353356;33;20043;-72
2021/12/11 00:52:44;;;;;;;104.03;35.03;;;;;;;-2.83;100.00;97849.97;4354002;33;20048;-71
2021/12/11 00:55:17;;;;;;;105.53;32.42;;;;;;;-2.88;100.00;97848.94;4341272;33;20940;-72
2021/12/11 00:57:46;;;;;;;88.40;31.23;;;;;;;-2.83;100.00;97851.81;4361361;32;20047;-71
2021/12/11 01:00:21;;;;;;;89.75;31.37;;;;;;;-2.84;100.00;97852.81;4368809;32;20040;-71
2021/12/11 01:02:54;;;;;;;83.93;29.30;;;;;;;-2.90;100.00;97835.13;4354439;32;20056;-72
2021/12/11 01:05:22;;;;;;;79.57;28.58;;;;;;;-2.79;100.00;97853.06;4368917;32;20186;-72
2021/12/11 01:07:49;;;;;;;92.32;32.47;;;;;;;-2.83;100.00;97846.53;4369681;32;20039;-73
2021/12/11 01:10:27;;;;;;;94.50;33.63;;;;;;;-2.88;100.00;97854.22;4370077;32;20364;-72
2021/12/11 01:13:01;;;;;;;91.95;33.38;;;;;;;-2.88;100.00;97864.75;4358820;32;20346;-72
2021/12/11 01:15:33;;;;;;;87.25;31.30;;;;;;;-2.83;100.00;97867.63;4354914;33;20043;-72
2021/12/11 01:20:54;;;;;;;84.72;31.27;;;;;;;-2.71;100.00;97865.25;4355074;33;19957;-72
2021/12/11 01:26:03;;;;;;;91.22;31.42;;;;;;;-3.02;100.00;97827.75;4366481;32;20070;-72
2021/12/11 01:28:30;;;;;;;67.20;25.12;;;;;;;-2.67;100.00;97877.84;4369278;32;20065;-72
2021/12/11 01:30:59;;;;;;;82.62;28.27;;;;;;;-2.69;100.00;97871.16;4369806;32;20040;-72
2021/12/11 01:33:26;;;;;;;80.72;27.45;;;;;;;-2.56;100.00;97885.22;4369315;32;20028;-72
2021/12/11 01:35:53;;;;;;;82.55;28.25;;;;;;;-2.85;100.00;97828.28;4369798;32;20031;-73
2021/12/11 01:38:24;;;;;;;72.62;27.42;;;;;;;-2.63;100.00;97862.50;4372345;32;20703;-73
2021/12/11 01:40:55;;;;;;;62.62;22.98;;;;;;;-2.46;100.00;97882.22;4357835;32;20023;-72
2021/12/11 01:43:25;;;;;;;72.78;29.50;;;;;;;-2.47;100.00;97879.78;4358880;32;20062;-72
2021/12/11 01:45:54;;;;;;;80.72;29.73;;;;;;;-2.43;100.00;97884.47;4371219;32;20039;-73
2021/12/11 01:48:28;;;;;;;84.13;29.17;;;;;;;-2.69;100.00;97848.25;4372056;32;20069;-72
2021/12/11 01:51:05;;;;;;;84.15;31.95;;;;;;;-2.44;100.00;97897.84;4369370;32;20469;-72
2021/12/11 01:53:36;;;;;;;85.07;28.35;;;;;;;-2.46;100.00;97889.34;4343210;33;20046;-72
2021/12/11 01:56:14;;;;;;;80.50;28.50;;;;;;;-2.72;100.00;97853.91;4356651;32;20056;-72
2021/12/11 01:58:44;;;;;;;76.45;28.02;;;;;;;-2.50;100.00;97872.28;4369897;32;20173;-72
2021/12/11 02:01:17;;;;;;;80.20;26.55;;;;;;;-2.37;100.00;97888.19;4371032;32;20044;-72
2021/12/11 02:03:48;;;;;;;68.53;26.80;;;;;;;-2.39;100.00;97896.28;4368850;32;20023;-72
2021/12/11 02:06:15;;;;;;;71.97;26.75;;;;;;;-2.35;100.00;97901.97;4358770;32;20054;-72
2021/12/11 02:08:42;;;;;;;58.17;22.37;;;;;;;-2.33;100.00;97902.59;4370967;32;20073;-73
2021/12/11 02:11:16;;;;;;;75.78;29.08;;;;;;;-2.34;100.00;97908.88;4370954;32;20166;-73
2021/12/11 02:13:51;;;;;;;63.55;24.27;;;;;;;-2.26;100.00;97911.34;4356549;32;20353;-73
2021/12/11 02:16:33;;;;;;;66.53;26.42;;;;;;;-2.20;100.00;97905.31;4357941;32;20065;-73
2021/12/11 02:19:10;;;;;;;70.75;27.35;;;;;;;-2.14;100.00;97902.88;4370761;32;20087;-72
2021/12/11 02:22:07;;;;;;;64.32;24.40;;;;;;;-2.22;100.00;97901.22;4357958;32;20055;-72
2021/12/11 02:24:54;;;;;;;63.60;23.98;;;;;;;-2.42;100.00;97882.69;4364628;32;20042;-73
2021/12/11 02:27:25;;;;;;;70.35;22.95;;;;;;;-2.06;100.00;97929.09;4370663;32;20039;-73
2021/12/11 02:30:27;;;;;;;67.37;25.45;;;;;;;-2.02;100.00;97917.16;4371289;32;20035;-73
2021/12/11 02:32:57;;;;;;;67.12;24.98;;;;;;;-2.10;100.00;97925.25;4352343;32;20044;-73
2021/12/11 02:35:32;;;;;;;54.08;22.75;;;;;;;-2.10;100.00;97933.97;4371822;32;20402;-73
2021/12/11 02:38:10;;;;;;;65.50;22.65;;;;;;;-2.35;100.00;97893.25;4370945;32;20040;-72
2021/12/11 02:41:03;;;;;;;57.67;21.35;;;;;;;-2.58;100.00;97870.62;4365827;32;20051;-72
2021/12/11 02:43:38;;;;;;;68.47;22.27;;;;;;;-2.41;100.00;97892.19;4338763;32;20291;-73
2021/12/11 02:46:21;;;;;;;61.35;24.27;;;;;;;-2.50;100.00;97888.13;4360177;32;20055;-73
2021/12/11 02:49:00;;;;;;;66.15;24.90;;;;;;;-2.24;100.00;97940.97;4367575;32;20070;-73
2021/12/11 02:51:35;;;;;;;67.28;26.15;;;;;;;-2.33;100.00;97946.59;4357673;32;20032;-73
2021/12/11 02:54:09;;;;;;;69.35;24.75;;;;;;;-2.58;100.00;97924.12;4370559;32;20065;-72
2021/12/11 02:56:43;;;;;;;61.33;22.17;;;;;;;-2.54;100.00;97940.38;4369160;32;20047;-73
2021/12/11 02:59:15;;;;;;;75.87;25.58;;;;;;;-2.47;100.00;97959.72;4356860;32;20366;-73
2021/12/11 03:01:48;;;;;;;69.97;26.83;;;;;;;-2.52;100.00;97963.91;4356668;32;20363;-71
2021/12/11 03:04:25;;;;;;;;;;;;;;;-2.59;100.00;97972.56;4368503;32;20390;-73
2021/12/11 03:06:58;;;;;;;60.63;24.42;;;;;;;-2.60;100.00;97978.88;4355911;32;19972;-71
2021/12/11 03:09:28;;;;;;;72.00;24.83;;;;;;;-2.63;100.00;97976.63;4369545;32;20053;-72
2021/12/11 03:11:58;;;;;;;65.65;25.33;;;;;;;-2.88;100.00;97943.78;4369418;32;20303;-72
2021/12/11 03:14:26;;;;;;;67.82;25.30;;;;;;;-2.69;100.00;97990.56;4369191;32;20085;-71
2021/12/11 03:16:53;;;;;;;68.97;25.50;;;;;;;-2.80;100.00;97983.16;4357558;32;20040;-71
2021/12/11 03:19:24;;;;;;;73.12;28.60;;;;;;;-3.05;100.00;97948.50;4369629;32;20031;-72
2021/12/11 03:21:52;;;;;;;78.40;27.95;;;;;;;-2.78;100.00;97996.94;4367951;32;20104;-74
2021/12/11 03:24:20;;;;;;;82.78;28.70;;;;;;;-2.70;100.00;97999.44;4370692;32;20055;-73
2021/12/11 03:26:49;;;;;;;74.65;25.35;;;;;;;-2.69;100.00;97995.81;4370045;32;20031;-73
2021/12/11 03:29:16;;;;;;;76.25;26.25;;;;;;;-2.78;100.00;97999.59;4370749;32;20062;-73
2021/12/11 03:31:44;;;;;;;74.22;26.27;;;;;;;-2.72;100.00;98003.31;4370715;32;20098;-73
2021/12/11 03:34:15;;;;;;;81.43;27.55;;;;;;;-2.72;100.00;97990.94;4369112;32;20401;-73
2021/12/11 03:36:43;;;;;;;70.68;24.90;;;;;;;-2.65;100.00;98012.91;4371179;32;20368;-73
2021/12/11 03:39:15;;;;;;;83.95;26.45;;;;;;;-2.75;100.00;98015.03;4370776;32;20327;-73
2021/12/11 03:41:43;;;;;;;;;;;;;;;-3.13;100.00;97952.91;4371121;32;20069;-74
2021/12/11 03:44:10;;;;;;;78.75;23.45;;;;;;;-2.71;100.00;98015.44;4367825;32;19985;-73
2021/12/11 03:46:38;;;;;;;85.75;29.98;;;;;;;-2.73;100.00;98010.38;4370573;32;20051;-73
2021/12/11 03:49:12;;;;;;;77.07;28.83;;;;;;;-2.88;100.00;98010.44;4370202;32;20388;-73
2021/12/11 03:51:42;;;;;;;73.43;24.12;;;;;;;-2.86;100.00;98012.88;4368397;32;20204;-74
2021/12/11 03:54:13;;;;;;;73.25;24.23;;;;;;;-2.77;100.00;98019.66;4368137;32;20070;-73
2021/12/11 03:56:41;;;;;;;67.03;23.73;;;;;;;-2.84;100.00;98014.34;4368968;32;20082;-73
2021/12/11 03:59:11;;;;;;;71.40;23.55;;;;;;;-2.85;100.00;98006.63;4369588;32;20442;-73
2021/12/11 04:01:55;;;;;;;78.75;28.00;;;;;;;-2.89;100.00;98013.25;4360548;32;20113;-74
2021/12/11 04:04:27;;;;;;;79.45;26.92;;;;;;;-2.92;100.00;98011.81;4358955;32;20047;-73
2021/12/11 04:06:56;;;;;;;81.47;25.43;;;;;;;-2.85;100.00;98017.16;4370190;32;20065;-73
2021/12/11 04:09:24;;;;;;;76.30;25.25;;;;;;;-3.05;100.00;97975.63;4368729;32;20372;-73
2021/12/11 04:11:52;;;;;;;69.68;24.27;;;;;;;-2.68;100.00;98018.53;4370235;32;20077;-73
2021/12/11 04:14:23;;;;;;;63.47;23.15;;;;;;;-3.11;100.00;97957.97;4356627;32;20323;-72
2021/12/11 04:16:51;;;;;;;75.20;23.40;;;;;;;-2.77;100.00;98014.41;4356295;32;20079;-73
2021/12/11 04:19:19;;;;;;;72.97;21.73;;;;;;;-2.67;100.00;98030.69;4367801;32;20048;-73
2021/12/11 04:21:46;;;;;;;65.93;22.92;;;;;;;-2.88;100.00;97992.00;4369674;32;20047;-73
2021/12/11 04:24:15;;;;;;;62.88;20.30;;;;;;;-2.67;100.00;98030.69;4370089;32;20063;-73
2021/12/11 04:26:43;;;;;;;78.80;25.12;;;;;;;-2.97;100.00;97996.59;4370395;32;20039;-73
2021/12/11 04:29:09;;;;;;;86.68;26.42;;;;;;;-2.95;100.00;98007.75;4369947;32;20044;-73
2021/12/11 04:31:41;;;;;;;61.78;22.50;;;;;;;-3.00;100.00;97993.50;4367155;32;20413;-73
2021/12/11 04:34:17;;;;;;;72.37;25.27;;;;;;;-2.71;100.00;98045.28;4368181;32;20364;-73
2021/12/11 04:36:50;;;;;;;77.85;25.05;;;;;;;-3.19;100.00;97979.13;4356728;32;20059;-72
2021/12/11 04:39:21;;;;;;;78.35;24.40;;;;;;;-2.75;100.00;98055.34;4369329;32;20043;-73
2021/12/11 04:41:57;;;;;;;88.60;25.12;;;;;;;-2.82;100.00;98053.69;4370119;32;20065;-74
2021/12/11 04:44:34;;;;;;;76.55;24.40;;;;;;;-2.83;100.00;98057.31;4356335;32;20053;-73
2021/12/11 04:47:06;;;;;;;76.12;23.00;;;;;;;-3.16;100.00;98005.09;4369828;32;20350;-73
2021/12/11 04:49:46;;;;;;;83.60;25.48;;;;;;;-2.82;100.00;98051.84;4368355;32;20031;-73
2021/12/11 04:52:34;;;;;;;83.20;22.50;;;;;;;-2.80;100.00;98054.31;4355935;32;20051;-72
2021/12/11 04:55:21;;;;;;;80.45;23.25;;;;;;;-2.81;100.00;98050.03;4367557;32;20075;-73
2021/12/11 05:00:43;;;;;;;78.45;22.95;;;;;;;-2.77;100.00;98038.12;4369995;32;20070;-72
2021/12/11 05:10:58;;;;;;;82.20;21.37;;;;;;;-2.77;100.00;98067.91;4370013;32;20454;-73
2021/12/11 05:13:27;;;;;;;72.97;20.95;;;;;;;-2.86;100.00;98060.31;4372466;32;20039;-73
2021/12/11 05:15:58;;;;;;;81.10;21.80;;;;;;;-2.76;100.00;98072.19;4359166;32;20040;-72
2021/12/11 05:18:28;;;;;;;85.95;22.85;;;;;;;-3.03;100.00;98036.00;4370103;32;20053;-74
2021/12/11 05:20:59;;;;;;;83.40;22.83;;;;;;;-3.08;100.00;98033.94;4372946;32;20069;-73
2021/12/11 05:23:25;;;;;;;82.43;25.23;;;;;;;-2.77;100.00;98072.37;4359252;32;20035;-73
2021/12/11 05:25:52;;;;;;;75.72;24.87;;;;;;;-2.80;100.00;98075.38;4372444;32;20061;-72
2021/12/11 05:28:20;;;;;;;170.95;28.05;;;;;;;-2.85;100.00;98080.41;4345276;32;20384;-73
2021/12/11 05:30:53;;;;;;;76.90;21.85;;;;;;;-3.26;100.00;98030.91;4372168;32;20949;-73
2021/12/11 05:33:21;;;;;;;86.12;23.20;;;;;;;-3.25;100.00;98038.62;4372307;32;20048;-73
2021/12/11 05:35:49;;;;;;;88.18;23.67;;;;;;;-3.28;100.00;98039.00;4370747;32;20039;-74
2021/12/11 05:38:18;;;;;;;77.68;24.23;;;;;;;-3.21;100.00;98044.34;4371544;32;20027;-73
2021/12/11 05:40:49;;;;;;;74.15;23.80;;;;;;;-2.88;100.00;98081.56;4369611;32;20077;-73
2021/12/11 05:43:17;;;;;;;83.20;23.42;;;;;;;-3.12;100.00;98048.50;4358256;32;20315;-72
2021/12/11 05:45:44;;;;;;;96.87;25.42;;;;;;;-2.93;100.00;98095.31;4370970;32;20031;-73
2021/12/11 05:48:13;;;;;;;81.93;25.12;;;;;;;-2.92;100.00;98099.56;4370886;32;20457;-73
2021/12/11 05:50:44;;;;;;;77.47;24.17;;;;;;;-3.25;100.00;98058.91;4370376;32;20446;-74
2021/12/11 05:53:13;;;;;;;103.07;24.00;;;;;;;-3.02;100.00;98100.88;4372044;32;20097;-72
2021/12/11 05:55:41;;;;;;;97.47;24.60;;;;;;;-3.30;100.00;98073.41;4371872;32;20184;-72
2021/12/11 05:58:13;;;;;;;93.75;23.83;;;;;;;-3.57;100.00;98034.63;4369964;32;20050;-73
2021/12/11 06:00:45;;;;;;;100.72;27.00;;;;;;;-3.02;100.00;98128.03;4347901;32;20032;-73
2021/12/11 06:03:14;;;;;;;99.82;27.35;;;;;;;-3.36;100.00;98089.94;4370180;32;20415;-72
2021/12/11 06:05:42;;;;;;;88.40;23.23;;;;;;;-3.37;100.00;98103.28;4372237;32;20096;-73
2021/12/11 06:08:10;;;;;;;87.72;25.55;;;;;;;-3.25;100.00;98135.25;4371970;32;20070;-72
2021/12/11 06:10:40;;;;;;;104.80;27.27;;;;;;;-3.26;100.00;98146.75;4370739;32;20163;-73
2021/12/11 06:13:08;;;;;;;91.70;28.23;;;;;;;-3.22;100.00;98148.84;4371335;32;20155;-73
2021/12/11 06:15:35;;;;;;;100.22;26.25;;;;;;;-3.20;100.00;98159.22;4371307;32;20065;-73
2021/12/11 06:18:03;;;;;;;106.40;25.98;;;;;;;-3.48;100.00;98117.72;4356730;32;20058;-73
2021/12/11 06:20:32;;;;;;;142.77;27.70;;;;;;;-3.36;100.00;98163.66;4369596;32;20159;-71
2021/12/11 06:22:59;;;;;;;76.25;22.70;;;;;;;-3.49;100.00;98147.69;4356297;32;20050;-73
2021/12/11 06:25:29;;;;;;;89.68;25.02;;;;;;;-3.51;100.00;98160.19;4359831;32;20814;-72
2021/12/11 06:27:56;;;;;;;87.07;28.00;;;;;;;-3.46;100.00;98178.91;4371071;32;20163;-72
2021/12/11 06:30:24;;;;;;;94.82;25.33;;;;;;;-3.43;100.00;98173.28;4357406;32;20357;-72
2021/12/11 06:32:52;;;;;;;96.53;26.05;;;;;;;-3.71;100.00;98130.97;4368739;32;20061;-72
2021/12/11 06:35:27;;;;;;;91.15;24.42;;;;;;;-3.52;100.00;98174.34;4369304;32;20059;-71
2021/12/11 06:37:55;;;;;;;83.68;24.25;;;;;;;-3.46;100.00;98186.81;4371296;32;20036;-71
2021/12/11 06:40:24;;;;;;;79.07;24.40;;;;;;;-3.79;100.00;98138.94;4371118;32;20207;-72
2021/12/11 06:42:51;;;;;;;82.70;24.42;;;;;;;-3.56;100.00;98188.84;4371228;32;20032;-73
2021/12/11 06:45:19;;;;;;;73.50;24.60;;;;;;;-3.60;100.00;98191.03;4354519;32;20065;-73
2021/12/11 06:47:46;;;;;;;78.12;22.25;;;;;;;-3.62;100.00;98200.09;4356904;32;20043;-71
2021/12/11 06:50:13;;;;;;;83.78;23.48;;;;;;;-3.74;100.00;98182.13;4370114;32;20035;-72
2021/12/11 06:52:41;;;;;;;65.53;20.35;;;;;;;-3.61;100.00;98204.38;4351815;32;20381;-71
2021/12/11 06:55:10;;;;;;;81.00;23.15;;;;;;;-3.65;100.00;98209.19;4364647;32;20059;-72
2021/12/11 06:57:36;;;;;;;76.32;24.70;;;;;;;-4.14;100.00;98168.31;4355797;32;20035;-71
2021/12/11 07:00:06;;;;;;;71.25;21.73;;;;;;;-3.88;100.00;98217.09;4371029;32;20053;-71
2021/12/11 07:02:32;;;;;;;74.68;23.65;;;;;;;-3.85;100.00;98235.16;4357426;32;20386;-71
2021/12/11 07:04:59;;;;;;;76.12;25.85;;;;;;;-4.19;100.00;98194.34;4363210;32;20407;-71
2021/12/11 07:07:32;;;;;;;65.70;22.35;;;;;;;-4.09;100.00;98242.22;4341626;32;20389;-73
2021/12/11 07:10:00;;;;;;;77.28;25.60;;;;;;;-4.07;100.00;98240.25;4354848;32;20044;-71
2021/12/11 07:12:27;;;;;;;70.53;23.05;;;;;;;-4.15;100.00;98237.66;4355994;32;20058;-72
2021/12/11 07:14:54;;;;;;;69.45;22.37;;;;;;;-4.16;100.00;98236.06;4343009;32;20036;-71
2021/12/11 07:17:21;;;;;;;80.10;24.25;;;;;;;-4.30;100.00;98198.19;4370494;32;20077;-72
2021/12/11 07:19:47;;;;;;;65.62;24.63;;;;;;;-4.31;100.00;98208.88;4366609;32;20063;-71
2021/12/11 07:22:15;;;;;;;85.18;25.00;;;;;;;-4.08;100.00;98248.31;4357878;32;20043;-71
2021/12/11 07:24:47;;;;;;;64.15;24.65;;;;;;;-4.15;100.00;98248.19;4370546;32;20350;-72
2021/12/11 07:27:13;;;;;;;;;;;;;;;-4.12;100.00;98245.22;4369139;32;20463;-73
2021/12/11 07:29:40;;;;;;;66.03;23.02;;;;;;;-4.02;100.00;98248.44;4369208;32;19950;-72
2021/12/11 07:32:08;;;;;;;66.15;22.90;;;;;;;-3.98;100.00;98253.34;4356150;32;20020;-72
2021/12/11 07:34:34;;;;;;;75.97;24.40;;;;;;;-4.06;100.00;98241.06;4370018;32;20085;-72
2021/12/11 07:37:03;;;;;;;73.10;25.08;;;;;;;-4.38;100.00;98206.94;4357194;32;20155;-72
2021/12/11 07:39:29;;;;;;;70.82;24.58;;;;;;;-4.03;100.00;98262.56;4368044;32;20448;-72
2021/12/11 07:41:56;;;;;;;68.93;26.25;;;;;;;-4.08;100.00;98278.06;4369401;32;20081;-72
2021/12/11 07:44:24;;;;;;;78.78;26.52;;;;;;;-4.09;100.00;98278.25;4368259;32;20032;-72
2021/12/11 07:46:53;;;;;;;75.53;25.15;;;;;;;-4.31;100.00;98227.28;4370520;32;20431;-72
2021/12/11 07:49:20;;;;;;;72.20;26.08;;;;;;;-4.02;100.00;98282.62;4367412;32;20039;-73
2021/12/11 07:51:48;;;;;;;83.82;29.58;;;;;;;-4.01;100.00;98281.62;4358044;32;20385;-72
2021/12/11 07:54:14;;;;;;;78.05;28.70;;;;;;;-4.13;100.00;98280.41;4355224;32;20365;-71
2021/12/11 07:56:41;;;;;;;82.28;27.08;;;;;;;-4.25;100.00;98300.19;4355483;32;20031;-72
2021/12/11 07:59:09;;;;;;;84.05;27.75;;;;;;;-4.25;100.00;98294.91;4355080;32;20028;-73
2021/12/11 08:01:39;;;;;;;84.30;29.65;;;;;;;-4.50;100.00;98255.66;4352034;32;20173;-72
2021/12/11 08:04:06;;;;;;;82.43;30.12;;;;;;;-4.25;100.00;98310.69;4365312;32;20376;-72
2021/12/11 08:06:35;;;;;;;72.15;27.73;;;;;;;-4.44;100.00;98307.47;4369589;32;20092;-72
2021/12/11 08:09:04;;;;;;;84.93;29.83;;;;;;;-4.40;100.00;98316.69;4370047;32;20028;-72
2021/12/11 08:11:31;;;;;;;73.75;26.30;;;;;;;-4.38;100.00;98321.75;4368566;32;20440;-72
2021/12/11 08:13:59;;;;;;;72.40;26.75;;;;;;;-4.32;100.00;98315.81;4368277;32;20066;-71
2021/12/11 08:16:33;;;;;;;77.97;27.13;;;;;;;-4.32;100.00;98320.25;4370043;32;20064;-72
2021/12/11 08:19:01;;;;;;;75.90;26.45;;;;;;;-4.29;100.00;98319.91;4356308;32;20040;-72
2021/12/11 08:21:27;;;;;;;80.18;27.05;;;;;;;-4.42;100.00;98284.50;4352660;32;20122;-73
2021/12/11 08:23:55;;;;;;;69.25;26.25;;;;;;;-4.06;100.00;98331.28;4367035;32;20109;-73
2021/12/11 08:26:25;;;;;;;73.60;27.20;;;;;;;-4.42;100.00;98260.84;4368903;32;20067;-73
2021/12/11 08:28:52;;;;;;;71.32;26.95;;;;;;;-4.23;100.00;98288.50;4368668;32;20098;-72
2021/12/11 08:31:20;;;;;;;68.70;26.62;;;;;;;-3.92;100.00;98336.81;4365401;32;20052;-73
2021/12/11 08:33:48;;;;;;;75.07;29.98;;;;;;;-3.87;100.00;98343.19;4368580;32;20189;-72
2021/12/11 08:36:15;;;;;;;71.57;27.98;;;;;;;-3.87;100.00;98334.47;4354170;32;20090;-71
2021/12/11 08:38:42;;;;;;;82.60;26.83;;;;;;;-3.83;100.00;98338.38;4365506;32;20081;-72
2021/12/11 08:41:12;;;;;;;60.20;25.77;;;;;;;-3.75;100.00;98338.34;4356519;32;20061;-73
2021/12/11 08:43:39;;;;;;;72.22;24.58;;;;;;;-3.67;100.00;98350.62;4353220;32;20048;-72
2021/12/11 08:46:14;;;;;;;73.03;26.67;;;;;;;-3.62;100.00;98352.72;4341122;33;20024;-71
2021/12/11 08:48:46;;;;;;;68.87;23.35;;;;;;;-3.60;100.00;98359.47;4340726;33;20444;-72
2021/12/11 08:51:35;;;;;;;77.60;26.67;;;;;;;-3.78;100.00;98312.41;4353022;33;20105;-73
2021/12/11 08:54:05;;;;;;;77.47;25.95;;;;;;;-3.72;100.00;98322.22;4354255;33;20059;-72
2021/12/11 08:56:34;;;;;;;72.93;27.13;;;;;;;-3.61;100.00;98328.88;4362178;32;20044;-72
2021/12/11 08:59:01;;;;;;;74.43;24.50;;;;;;;-3.42;100.00;98368.88;4352060;32;20061;-72
2021/12/11 09:01:42;;;;;;;80.47;27.23;;;;;;;-3.65;100.00;98323.16;4357640;32;20848;-73
2021/12/11 09:04:15;;;;;;;77.50;25.40;;;;;;;-3.58;100.00;98322.44;4364429;32;20044;-73
2021/12/11 09:06:50;;;;;;;77.10;28.30;;;;;;;-3.28;100.00;98376.81;4369584;32;20047;-72
2021/12/11 09:09:37;;;;;;;70.05;29.15;;;;;;;-3.19;100.00;98384.66;4367260;32;20047;-72
2021/12/11 09:12:29;;;;;;;70.00;28.33;;;;;;;-3.39;100.00;98358.81;4355251;32;20058;-74
2021/12/11 09:15:15;;;;;;;89.53;30.50;;;;;;;-2.94;100.00;98399.25;4368695;32;20047;-74
2021/12/11 09:17:50;;;;;;;76.28;30.75;;;;;;;-2.85;100.00;98407.91;4368001;32;20109;-73
2021/12/11 09:20:37;;;;;;;94.68;32.10;;;;;;;-3.02;100.00;98372.97;4367213;32;20096;-72
2021/12/11 09:23:13;;;;;;;77.82;29.63;;;;;;;-2.73;100.00;98426.72;4368904;32;20481;-72
2021/12/11 09:25:54;;;;;;;89.13;33.13;;;;;;;-2.64;100.00;98425.66;4367216;32;20040;-72
2021/12/11 09:28:24;;;;;;;80.93;28.20;;;;;;;-2.69;100.00;98409.56;4353879;32;20491;-72
2021/12/11 09:30:58;;;;;;;65.40;27.58;;;;;;;-2.47;100.00;98422.84;4352130;32;20487;-72
2021/12/11 09:33:29;;;;;;;69.18;27.10;;;;;;;-2.60;100.00;98384.78;4349852;33;20047;-72
2021/12/11 09:35:58;;;;;;;87.18;30.20;;;;;;;-2.56;100.00;98391.31;4352892;33;20052;-72
2021/12/11 09:38:29;;;;;;;73.43;27.42;;;;;;;-2.15;100.00;98439.31;4351353;33;20077;-72
2021/12/11 09:40:56;;;;;;;76.65;28.20;;;;;;;-2.04;100.00;98441.53;4354198;33;20444;-72
2021/12/11 09:43:37;;;;;;;84.07;29.83;;;;;;;-2.21;100.00;98404.78;4353770;33;20479;-72
2021/12/11 09:46:08;;;;;;;73.60;28.00;;;;;;;-1.95;100.00;98450.16;4361675;32;20084;-72
2021/12/11 09:48:34;;;;;;;75.72;27.20;;;;;;;-1.79;100.00;98451.78;4368410;32;20039;-73
2021/12/11 09:51:04;;;;;;;83.93;29.23;;;;;;;-1.74;100.00;98463.44;4361843;32;20074;-73
2021/12/11 09:53:36;;;;;;;75.22;29.35;;;;;;;-1.81;100.00;98436.13;4353181;32;20061;-73
2021/12/11 09:56:08;;;;;;;78.05;28.55;;;;;;;-1.75;100.00;98450.41;4357130;32;20051;-74
2021/12/11 09:58:37;;;;;;;87.60;31.08;;;;;;;-1.60;100.00;98469.66;4371197;32;20170;-72
2021/12/11 10:01:20;;;;;;;78.12;29.45;;;;;;;-1.50;100.00;98470.22;4355944;32;20404;-72
2021/12/11 10:04:00;;;;;;;67.70;26.52;;;;;;;-1.40;100.00;98477.03;4353132;32;20069;-73
2021/12/11 10:06:50;;;;;;;74.40;27.67;;;;;;;-1.22;100.00;98482.69;4354807;32;20069;-72
2021/12/11 10:09:22;;;;;;;69.45;29.05;;;;;;;-1.18;100.00;98483.97;4361737;32;20516;-72
2021/12/11 10:12:05;;;;;;;74.57;26.05;;;;;;;-1.12;100.00;98475.28;4370793;32;20397;-74
2021/12/11 10:14:37;;;;;;;69.60;28.30;;;;;;;-1.08;100.00;98472.28;4356441;32;20059;-72
2021/12/11 10:17:11;;;;;;;82.37;28.45;;;;;;;-1.13;100.00;98471.00;4370010;32;20061;-72
2021/12/11 10:19:40;;;;;;;71.40;28.62;;;;;;;-1.11;100.00;98463.69;4350596;32;20047;-73
2021/12/11 10:22:16;;;;;;;84.75;30.77;;;;;;;-1.30;100.00;98424.69;4363385;32;20044;-72
2021/12/11 10:24:44;;;;;;;84.95;29.60;;;;;;;-1.23;100.00;98438.78;4367731;32;20061;-72
2021/12/11 10:27:15;;;;;;;81.47;30.92;;;;;;;-0.89;100.00;98487.50;4358438;32;20395;-72
2021/12/11 10:29:45;;;;;;;80.22;35.67;;;;;;;-0.84;100.00;98490.38;4368126;32;20432;-73
2021/12/11 10:32:17;;;;;;;80.62;32.10;;;;;;;-1.02;100.00;98460.94;4368960;32;20063;-72
2021/12/11 10:34:50;;;;;;;81.28;32.92;;;;;;;-0.68;100.00;98499.06;4368696;32;20069;-73
2021/12/11 10:37:33;;;;;;;77.90;30.15;;;;;;;-0.53;100.00;98497.16;4369301;32;20035;-72
2021/12/11 10:40:09;;;;;;;79.62;30.00;;;;;;;-0.66;100.00;98449.47;4364656;32;20052;-73
2021/12/11 10:42:36;;;;;;;78.15;27.98;;;;;;;-0.45;100.00;98493.56;4354778;32;20052;-73
2021/12/11 10:45:07;;;;;;;75.28;29.80;;;;;;;-0.75;100.00;98454.88;4354722;32;20141;-73
2021/12/11 10:47:39;;;;;;;68.25;30.25;;;;;;;-0.45;100.00;98498.84;4355172;32;20052;-73
2021/12/11 10:50:12;;;;;;;72.03;27.60;;;;;;;-0.30;100.00;98501.41;4353281;32;20086;-73
2021/12/11 10:52:39;;;;;;;78.90;31.77;;;;;;;-0.32;100.00;98512.19;4365653;32;20167;-73
2021/12/11 10:55:13;;;;;;;73.97;31.25;;;;;;;-0.52;100.00;98477.66;4345808;32;20077;-73
2021/12/11 10:57:40;;;;;;;77.12;30.17;;;;;;;-0.13;100.00;98515.16;4369259;32;20064;-73
2021/12/11 11:00:16;;;;;;;67.65;28.90;;;;;;;-0.31;100.00;98471.47;4364331;32;20099;-73
2021/12/11 11:02:44;;;;;;;68.15;28.92;;;;;;;-0.01;100.00;98510.97;4366382;32;20107;-73
2021/12/11 11:05:15;;;;;;;68.35;28.83;;;;;;;0.03;100.00;98516.69;4367900;32;20077;-74
2021/12/11 11:07:43;;;;;;;69.22;27.27;;;;;;;0.11;100.00;98513.88;4366145;32;20090;-73
2021/12/11 11:10:16;;;;;;;65.60;26.92;;;;;;;0.24;100.00;98505.19;4361959;32;20047;-73
2021/12/11 11:12:43;;;;;;;72.15;27.05;;;;;;;0.81;100.00;98503.19;4355428;32;20086;-73
2021/12/11 11:15:11;;;;;;;70.07;28.12;;;;;;;0.97;100.00;98507.31;4368390;32;20039;-73
2021/12/11 11:17:38;;;;;;;63.70;25.70;;;;;;;1.16;100.00;98516.34;4356326;32;20263;-73
2021/12/11 11:20:13;;;;;;;60.28;25.92;;;;;;;1.19;100.00;98518.59;4358878;32;20048;-73
2021/12/11 11:22:41;;;;;;;60.90;27.08;;;;;;;1.18;100.00;98503.69;4356209;32;20066;-73
2021/12/11 11:25:18;;;;;;;74.57;28.00;;;;;;;1.19;100.00;98515.94;4358719;32;20039;-73
2021/12/11 11:27:47;;;;;;;64.68;28.08;;;;;;;0.86;100.00;98479.56;4369912;32;20060;-72
2021/12/11 11:30:20;;;;;;;63.03;24.80;;;;;;;0.98;100.00;98524.88;4361042;32;20069;-72
2021/12/11 11:32:47;;;;;;;;;;;;;;;0.60;100.00;98504.97;4359227;32;20052;-73
2021/12/11 11:35:18;;;;;;;54.72;23.33;;;;;;;0.98;100.00;98533.62;4358418;32;19981;-73
2021/12/11 11:37:50;;;;;;;70.65;25.92;;;;;;;1.03;100.00;98539.16;4366974;32;20051;-73
2021/12/11 11:40:22;;;;;;;63.70;25.10;;;;;;;0.78;100.00;98551.28;4369606;32;20380;-73
2021/12/11 11:42:49;;;;;;;56.22;24.33;;;;;;;0.77;100.00;98554.97;4351303;32;20098;-73
2021/12/11 11:45:16;;;;;;;67.45;27.55;;;;;;;0.67;100.00;98542.91;4356708;32;20061;-72